Terminal Aerodrome Forecast
Issued by NWS Sterling, VA

Home | Current Version | Previous Version | Text Only | Print | Product List | Glossary On
Versions: 1 2 3 4 5 6 7 8 9 10 11 12 13 14 15 16 17 18 19 20 21 22
000
FTUS41 KLWX 231700
TAFIAD
TAF
KIAD 231735Z 2318/2424 18007KT P6SM BKN100
     FM240000 15008KT P6SM OVC025
     FM240100 15008KT 5SM -RA OVC015
     FM240300 13009KT 3SM RA OVC008
     FM240500 15013KT 2SM RA OVC008
     FM240600 15014KT 1SM RA OVC008
     FM240900 18012KT 2SM -RA OVC008
     FM241100 18011KT P6SM OVC008
     FM241800 20016KT P6SM BKN050=

USA.gov is the U.S. government's official web portal to all federal, state and local government web resources and services.